METAR Data
IDs: Format: Raw Decoded Include TAF

Data at: 1407 UTC 10 Aug 2022

KOXR 101351Z 32003KT 8SM CLR 17/16 A2998 RMK AO2 SLP152 T01670156
KOXR 101251Z AUTO 00000KT 10SM CLR 17/15 A2996 RMK AO2 SLP145 T01670150
KOXR 101151Z AUTO 00000KT 10SM CLR 17/16 A2996 RMK AO2 SLP144 T01720156 10183 20167 55001
KOXR 101051Z AUTO 00000KT 10SM CLR 17/16 A2996 RMK AO2 SLP143 T01720156
KOXR 100951Z AUTO 00000KT 10SM CLR 17/16 A2996 RMK AO2 SLP143 T01720161
KOXR 100851Z AUTO 00000KT 10SM CLR 17/16 A2996 RMK AO2 SLP144 T01720156 53004
KOXR 100751Z AUTO 30003KT 10SM CLR 17/16 A2995 RMK AO2 SLP142 T01720161 402440167
KOXR 100651Z AUTO 00000KT 10SM CLR 17/16 A2995 RMK AO2 SLP142 T01720161
KOXR 100551Z AUTO 24004KT 10SM CLR 18/16 A2995 RMK AO2 SLP140 T01830156 10222 20178 51017
KOXR 100451Z AUTO 29003KT 10SM CLR 18/16 A2994 RMK AO2 SLP136 T01830161
KOXR 100351Z AUTO 28003KT 10SM CLR 18/16 A2991 RMK AO2 SLP128 T01780161
KOXR 100251Z 27007KT 10SM CLR 18/16 A2990 RMK AO2 SLP123 T01830161 53001
KOXR 100151Z 26008KT 10SM CLR 19/17 A2989 RMK AO2 SLP120 T01940167
KOXR 100051Z 26010KT 10SM CLR 21/17 A2990 RMK AO2 SLP123 T02060167
KOXR 092351Z 27011KT 10SM CLR 22/17 A2990 RMK AO2 SLP123 T02220167 10244 20217 57012
KOXR 092251Z 27013KT 10SM CLR 23/17 A2991 RMK AO2 SLP127 T02280172
KOXR 092151Z 28013KT 10SM CLR 24/16 A2992 RMK AO2 SLP131 T02390156
KOXR 092051Z 26012KT 10SM CLR 23/17 A2993 RMK AO2 SLP135 T02330172 58010
KOXR 091951Z 27010KT 10SM CLR 23/17 A2994 RMK AO2 SLP138 T02330167
KOXR 091851Z 28007KT 10SM CLR 24/17 A2996 RMK AO2 SLP143 T02390167
KOXR 091751Z 29009KT 10SM CLR 22/17 A2996 RMK AO2 SLP145 T02220167 10228 20167 51008
KOXR 091651Z 29006KT 10SM CLR 21/17 A2996 RMK AO2 SLP143 T02110172
KOXR 091551Z 29005KT 10SM CLR 19/18 A2995 RMK AO2 SLP141 T01890178
KOXR 091451Z 29005KT 9SM SCT025 18/17 A2994 RMK AO2 SLP137 T01780172 52011
KOXR 091351Z 30004KT 7SM CLR 17/17 A2993 RMK AO2 SLP134 T01720172
KOXR 091251Z AUTO 28004KT 8SM CLR 17/17 A2991 RMK AO2 SLP129 T01720167
KOXR 091151Z AUTO 30003KT 9SM CLR 17/16 A2991 RMK AO2 SLP126 T01670161 10172 20167 53001
KOXR 091051Z AUTO 00000KT 9SM CLR 17/16 A2990 RMK AO2 SLP125 T01670161
KOXR 090951Z AUTO 00000KT 9SM CLR 17/17 A2990 RMK AO2 SLP123 T01670167
KOXR 090851Z AUTO 29003KT 8SM CLR 17/17 A2990 RMK AO2 SLP125 T01670167 58006
KOXR 090751Z AUTO 30003KT 9SM CLR 17/17 A2992 RMK AO2 SLP130 T01720167 402440161
KOXR 090651Z AUTO 27005KT 9SM CLR 17/17 A2992 RMK AO2 SLP130 T01720167
KOXR 090551Z AUTO 29004KT 9SM CLR 17/17 A2992 RMK AO2 SLP131 T01720167 10222 20172 51011
KOXR 090451Z AUTO 28006KT 8SM CLR 17/17 A2992 RMK AO2 SLP132 T01720167
KOXR 090351Z AUTO 28003KT 9SM CLR 18/17 A2990 RMK AO2 SLP125 T01780167
KOXR 090251Z 28004KT 9SM CLR 18/17 A2989 RMK AO2 SLP120 T01830167 53003